Terminal Aerodrome Forecast
Issued by NWS

Current Version | Previous Version | Text Only | Print | Product List | Glossary On
Versions: 1 2 3 4 5 6 7 8 9 10 11 12 13 14 15 16
000
FTUS44 KMAF 112300
TAFINK
TAF
KINK 112328Z 1200/1224 12018G25KT P6SM SCT050
     FM120400 12010KT P6SM SCT050 BKN120
     FM121500 14014G22KT P6SM BKN060 BKN120=

USA.gov is the U.S. government's official web portal to all federal, state and local government web resources and services.